CheckWX is a tool to help pilots better visualize weather data.  It is not intended as a substitute for an official pre-flight weather briefing.

20:33:54 UTC

KMLI METAR
Quad City International Airport
Moline, Illinois, USA
Current

42 mins ago

KMLI 181952Z 27006KT 10SM CLR M02/M08 A3043 RMK AO2 SLP315 T10221078
Observed
Feb-18 @ 19:52 UTC
Wind
  • 270° at 6 KTS
Visibility
10 SM
Flight Rules
VFR
Cloud Levels
  • Clear skies
Temperature
-2°C / 28°F
Dewpoint
-8°C / 18°F
Humidity
64%
Altimeter
30.43" Hg
Pressure
1031.5 hPa
Previous

2 hours ago

KMLI 181852Z 28006KT 10SM CLR M02/M08 A3043 RMK AO2 SLP312 T10171078
Observed
Feb-18 @ 18:52 UTC
Wind
  • 280° at 6 KTS
Visibility
10 SM
Flight Rules
VFR
Cloud Levels
  • Clear skies
Temperature
-2°C / 28°F
Dewpoint
-8°C / 18°F
Humidity
64%
Altimeter
30.43" Hg
Pressure
1031.2 hPa
Previous

3 hours ago

KMLI 181752Z 04004KT 10SM CLR M03/M09 A3042 RMK AO2 SLP309 T10281089 11028 21094 51027
Observed
Feb-18 @ 17:52 UTC
Wind
  • 040° at 4 KTS
Visibility
10 SM
Flight Rules
VFR
Cloud Levels
  • Clear skies
Temperature
-3°C / 27°F
Dewpoint
-9°C / 16°F
Humidity
64%
Altimeter
30.42" Hg
Pressure
1030.9 hPa